createdAt,value
2017-05-22T00:01:24.148Z,10.50
2017-05-22T00:03:52.356Z,10.60
2017-05-22T00:06:20.575Z,10.70
2017-05-22T00:08:48.782Z,10.50
2017-05-22T00:11:17.008Z,10.40
2017-05-22T00:13:45.224Z,10.50
2017-05-22T00:16:13.442Z,10.40
2017-05-22T00:18:41.663Z,10.40
2017-05-22T00:21:09.867Z,10.30
2017-05-22T00:23:38.091Z,10.20
2017-05-22T00:26:06.307Z,10.00
2017-05-22T00:28:34.518Z,10.00
2017-05-22T00:31:02.739Z,10.10
2017-05-22T00:33:30.964Z,10.20
2017-05-22T00:35:59.175Z,10.00
2017-05-22T00:38:27.404Z,10.00
2017-05-22T00:40:55.619Z,10.00
2017-05-22T00:43:24.648Z,10.00
2017-05-22T00:45:52.855Z,10.00
2017-05-22T00:48:21.076Z,10.10
2017-05-22T00:50:49.303Z,10.20
2017-05-22T00:53:17.511Z,10.20
2017-05-22T00:55:45.731Z,10.30
2017-05-22T00:58:13.939Z,10.30
2017-05-22T01:00:42.164Z,10.30
2017-05-22T01:03:10.372Z,10.30
2017-05-22T01:05:38.595Z,10.20
2017-05-22T01:08:06.808Z,10.00
2017-05-22T01:10:35.019Z,9.80
2017-05-22T01:13:03.233Z,9.80
2017-05-22T01:15:31.431Z,9.70
2017-05-22T01:17:59.647Z,9.90
2017-05-22T01:20:27.855Z,9.80
2017-05-22T01:22:56.072Z,9.80
2017-05-22T01:25:24.279Z,9.80
2017-05-22T01:27:52.503Z,9.90
2017-05-22T01:30:20.719Z,9.90
2017-05-22T01:32:48.939Z,9.90
2017-05-22T01:35:17.151Z,9.80
2017-05-22T01:37:45.367Z,10.00
2017-05-22T01:40:13.579Z,10.00
2017-05-22T01:42:41.807Z,9.90
2017-05-22T01:45:10.019Z,9.80
2017-05-22T01:47:38.235Z,9.90
2017-05-22T01:50:06.442Z,9.90
2017-05-22T01:52:34.658Z,10.00
2017-05-22T01:55:02.882Z,10.00
2017-05-22T01:57:31.098Z,10.00
2017-05-22T01:59:59.318Z,10.00
2017-05-22T02:02:27.522Z,10.00
2017-05-22T02:04:55.748Z,10.00
2017-05-22T02:07:23.953Z,10.10
2017-05-22T02:09:52.179Z,10.00
2017-05-22T02:12:20.382Z,9.80
2017-05-22T02:14:48.621Z,9.80
2017-05-22T02:17:16.831Z,9.70
2017-05-22T02:19:45.047Z,9.60
2017-05-22T02:22:13.264Z,9.70
2017-05-22T02:24:41.486Z,9.80
2017-05-22T02:27:09.687Z,9.80
2017-05-22T02:29:37.906Z,9.80
2017-05-22T02:32:06.116Z,9.70
2017-05-22T02:34:34.447Z,9.80
2017-05-22T02:37:02.660Z,9.80
2017-05-22T02:39:30.875Z,9.80
2017-05-22T02:41:59.080Z,9.70
2017-05-22T02:44:27.313Z,9.70
2017-05-22T02:46:56.319Z,9.70
2017-05-22T02:49:24.535Z,9.60
2017-05-22T02:51:52.800Z,9.40
2017-05-22T02:54:21.025Z,9.40
2017-05-22T02:56:49.223Z,9.30
2017-05-22T02:59:17.447Z,9.30
2017-05-22T03:01:45.664Z,9.30
2017-05-22T03:04:13.876Z,9.20
2017-05-22T03:06:42.098Z,9.20
2017-05-22T03:09:10.311Z,9.30
2017-05-22T03:11:38.523Z,9.30
2017-05-22T03:14:06.727Z,9.30
2017-05-22T03:16:34.949Z,9.20
2017-05-22T03:19:03.152Z,9.20
2017-05-22T03:21:31.368Z,9.30
2017-05-22T03:23:59.583Z,9.40
2017-05-22T03:26:27.832Z,9.70
2017-05-22T03:28:56.040Z,9.70
2017-05-22T03:31:24.256Z,9.70
2017-05-22T03:33:52.467Z,9.70
2017-05-22T03:36:20.683Z,9.60
2017-05-22T03:38:48.898Z,9.60
2017-05-22T03:41:17.119Z,9.50
2017-05-22T03:43:45.331Z,9.50
2017-05-22T03:46:13.560Z,9.30
2017-05-22T03:48:41.763Z,9.30
2017-05-22T03:51:10.083Z,9.30
2017-05-22T03:53:38.355Z,9.40
2017-05-22T03:56:06.575Z,9.40
2017-05-22T03:58:34.781Z,9.60
2017-05-22T04:01:02.991Z,9.60
2017-05-22T04:03:32.198Z,9.80
2017-05-22T04:20:26.924Z,9.90
2017-05-22T04:22:55.152Z,10.00
2017-05-22T04:25:23.355Z,9.90
2017-05-22T04:27:51.580Z,9.90
2017-05-22T04:30:19.795Z,9.90
2017-05-22T04:32:48.032Z,10.10
2017-05-22T04:35:16.243Z,10.30
2017-05-22T04:37:44.467Z,10.40
2017-05-22T04:40:12.675Z,10.40
2017-05-22T04:42:40.905Z,10.40
2017-05-22T04:45:09.118Z,10.50
2017-05-22T04:47:37.339Z,10.70
2017-05-22T04:50:06.340Z,10.90
2017-05-22T04:52:34.570Z,11.20
2017-05-22T04:55:02.787Z,11.30
2017-05-22T04:57:31.008Z,11.50
2017-05-22T04:59:59.219Z,11.60
2017-05-22T05:02:27.444Z,11.70
2017-05-22T05:04:55.668Z,11.70
2017-05-22T05:07:23.901Z,11.70
2017-05-22T05:09:52.113Z,11.80
2017-05-22T05:12:20.328Z,11.90
2017-05-22T05:14:48.554Z,12.10
2017-05-22T05:17:16.778Z,12.30
2017-05-22T05:19:44.999Z,12.50
2017-05-22T05:22:13.207Z,12.70
2017-05-22T05:24:41.427Z,12.90
2017-05-22T05:27:10.231Z,13.10
2017-05-22T05:29:38.451Z,13.40
2017-05-22T05:32:06.660Z,13.70
2017-05-22T05:34:34.903Z,13.80
2017-05-22T05:37:03.111Z,14.00
2017-05-22T05:39:31.335Z,14.10
2017-05-22T05:42:00.206Z,14.30
2017-05-22T05:44:28.852Z,14.40
2017-05-22T05:46:57.073Z,14.50
2017-05-22T05:49:25.294Z,14.70
2017-05-22T05:51:53.504Z,14.80
2017-05-22T05:54:21.719Z,15.00
2017-05-22T05:56:49.934Z,15.20
2017-05-22T05:59:18.171Z,15.50
2017-05-22T06:01:46.384Z,15.80
2017-05-22T06:04:14.600Z,16.00
2017-05-22T06:06:46.163Z,16.20
2017-05-22T06:09:14.380Z,16.60
2017-05-22T06:11:42.596Z,16.90
2017-05-22T06:14:10.827Z,17.00
2017-05-22T06:16:39.039Z,16.90
2017-05-22T06:19:07.247Z,17.00
2017-05-22T06:21:35.471Z,16.80
2017-05-22T06:24:03.691Z,16.70
2017-05-22T06:26:31.922Z,16.80
2017-05-22T06:29:00.135Z,17.00
2017-05-22T06:31:28.360Z,17.40
2017-05-22T06:33:55.809Z,17.30
2017-05-22T06:36:24.026Z,17.70
2017-05-22T06:38:52.252Z,17.50
2017-05-22T06:41:20.463Z,17.70
2017-05-22T06:43:48.689Z,17.90
2017-05-22T06:46:16.912Z,17.40
2017-05-22T06:48:45.120Z,16.80
2017-05-22T06:51:13.343Z,16.50
2017-05-22T06:53:41.556Z,16.50
2017-05-22T06:56:09.779Z,16.90
2017-05-22T06:58:38.001Z,17.20
2017-05-22T07:01:06.231Z,17.10
2017-05-22T07:03:34.435Z,17.30
2017-05-22T07:06:02.656Z,17.50
2017-05-22T07:08:30.863Z,17.80
2017-05-22T07:10:59.099Z,18.40
2017-05-22T07:13:27.312Z,19.00
2017-05-22T07:15:55.537Z,19.50
2017-05-22T07:18:23.755Z,20.30
2017-05-22T07:20:51.971Z,20.80
2017-05-22T07:23:20.184Z,20.90
2017-05-22T07:25:48.401Z,21.10
2017-05-22T07:28:16.620Z,21.20
2017-05-22T07:30:44.835Z,21.40
2017-05-22T07:33:13.055Z,22.10
2017-05-22T07:35:41.267Z,23.30
2017-05-22T07:38:09.484Z,23.80
2017-05-22T07:40:37.693Z,24.10
2017-05-22T07:43:05.918Z,23.80
2017-05-22T07:45:34.125Z,24.30
2017-05-22T07:48:02.358Z,24.80
2017-05-22T07:50:30.576Z,25.00
2017-05-22T07:52:59.560Z,24.60
2017-05-22T07:55:27.784Z,24.90
2017-05-22T07:57:56.001Z,25.60
2017-05-22T08:00:24.216Z,25.90
2017-05-22T08:02:52.443Z,26.10
2017-05-22T08:05:20.661Z,26.20
2017-05-22T08:07:49.731Z,26.40
2017-05-22T08:10:17.947Z,26.20
2017-05-22T08:12:46.169Z,25.80
2017-05-22T08:15:14.391Z,24.70
2017-05-22T08:17:42.617Z,24.60
2017-05-22T08:20:10.827Z,24.60
2017-05-22T08:22:39.050Z,24.30
2017-05-22T08:25:07.260Z,24.20
2017-05-22T08:27:35.485Z,24.60
2017-05-22T08:30:03.703Z,24.10
2017-05-22T08:32:31.949Z,23.50
2017-05-22T08:35:00.152Z,23.50
2017-05-22T08:37:28.367Z,23.50
2017-05-22T08:39:56.584Z,23.40
2017-05-22T08:42:24.791Z,22.60
2017-05-22T08:44:53.040Z,22.80
2017-05-22T08:47:21.243Z,22.10
2017-05-22T08:49:49.459Z,22.10
2017-05-22T08:52:17.667Z,22.20
2017-05-22T08:54:45.886Z,22.40
2017-05-22T08:57:14.096Z,22.50
2017-05-22T08:59:42.319Z,23.00
2017-05-22T09:02:10.544Z,22.70
2017-05-22T09:04:38.771Z,22.70
2017-05-22T09:07:06.983Z,22.80
2017-05-22T09:09:35.200Z,22.20
2017-05-22T09:12:03.422Z,22.20
2017-05-22T09:14:31.650Z,22.20
2017-05-22T09:16:59.864Z,22.20
2017-05-22T09:19:28.092Z,22.30
2017-05-22T09:21:56.295Z,22.10
2017-05-22T09:24:24.515Z,21.90
2017-05-22T09:26:52.723Z,22.50
2017-05-22T09:29:20.955Z,22.80
2017-05-22T09:31:49.171Z,23.10
2017-05-22T09:34:17.402Z,22.90
2017-05-22T09:36:45.611Z,22.60
2017-05-22T09:39:13.815Z,23.10
2017-05-22T09:41:42.043Z,23.20
2017-05-22T09:44:10.260Z,23.60
2017-05-22T09:46:38.495Z,23.30
2017-05-22T09:49:06.704Z,22.70
2017-05-22T09:51:34.923Z,23.10
2017-05-22T09:54:03.136Z,23.30
2017-05-22T09:56:31.375Z,23.50
2017-05-22T09:58:59.575Z,23.50
2017-05-22T10:01:27.803Z,23.40
2017-05-22T10:03:56.012Z,23.70
2017-05-22T10:06:24.235Z,23.70
2017-05-22T10:08:52.451Z,23.30
2017-05-22T10:11:20.684Z,23.70
2017-05-22T10:13:48.899Z,24.30
2017-05-22T10:16:17.120Z,24.10
2017-05-22T10:18:45.332Z,24.80
2017-05-22T10:21:13.555Z,23.90
2017-05-22T10:23:41.771Z,23.60
2017-05-22T10:26:10.007Z,23.80
2017-05-22T10:28:38.219Z,24.20
2017-05-22T10:31:06.439Z,24.80
2017-05-22T10:33:34.647Z,25.30
2017-05-22T10:36:02.879Z,24.60
2017-05-22T10:38:31.103Z,23.90
2017-05-22T10:40:59.331Z,23.90
2017-05-22T10:43:27.536Z,24.50
2017-05-22T10:45:55.758Z,24.50
2017-05-22T10:48:23.981Z,24.40
2017-05-22T10:50:52.190Z,24.50
2017-05-22T10:53:20.420Z,25.00
2017-05-22T10:55:48.627Z,25.50
2017-05-22T10:58:16.855Z,25.70
2017-05-22T11:00:45.059Z,25.50
2017-05-22T11:03:13.281Z,25.00
2017-05-22T11:05:41.495Z,25.10
2017-05-22T11:08:09.719Z,25.00
2017-05-22T11:10:37.935Z,25.10
2017-05-22T11:13:06.158Z,25.20
2017-05-22T11:15:34.375Z,25.20
2017-05-22T11:18:02.599Z,25.00
2017-05-22T11:20:30.823Z,25.20
2017-05-22T11:22:59.051Z,25.20
2017-05-22T11:25:27.261Z,25.70
2017-05-22T11:27:55.483Z,25.60
2017-05-22T11:30:23.691Z,25.90
2017-05-22T11:32:51.915Z,25.80
2017-05-22T11:35:20.135Z,25.00
2017-05-22T11:37:48.367Z,25.00
2017-05-22T11:40:16.579Z,24.90
2017-05-22T11:42:44.804Z,25.30
2017-05-22T11:45:13.019Z,26.30
2017-05-22T11:47:41.249Z,26.60
2017-05-22T11:50:09.456Z,26.90
2017-05-22T11:52:37.704Z,26.10
2017-05-22T11:55:05.915Z,25.70
2017-05-22T11:57:34.149Z,25.70
2017-05-22T12:00:02.375Z,26.40
2017-05-22T12:02:30.595Z,26.70
2017-05-22T12:04:58.816Z,26.20
2017-05-22T12:07:27.033Z,26.10
2017-05-22T12:09:55.256Z,26.30
2017-05-22T12:12:23.476Z,25.60
2017-05-22T12:14:51.703Z,25.20
2017-05-22T12:17:19.907Z,25.60
2017-05-22T12:19:48.132Z,25.90
2017-05-22T12:22:16.357Z,25.80
2017-05-22T12:24:44.584Z,25.90
2017-05-22T12:27:12.797Z,26.10
2017-05-22T12:29:41.024Z,26.10
2017-05-22T12:32:09.230Z,25.50
2017-05-22T12:34:37.466Z,25.60
2017-05-22T12:37:05.702Z,25.30
2017-05-22T12:39:33.928Z,25.00
2017-05-22T12:42:02.135Z,25.10
2017-05-22T12:44:30.365Z,25.20
2017-05-22T12:46:58.579Z,25.30
2017-05-22T12:49:26.815Z,24.70
2017-05-22T12:51:55.032Z,24.30
2017-05-22T12:54:23.247Z,24.10
2017-05-22T12:56:51.471Z,23.80
2017-05-22T12:59:19.715Z,23.90
2017-05-22T13:01:47.928Z,23.70
2017-05-22T13:04:16.141Z,23.70
2017-05-22T13:06:44.360Z,24.20
2017-05-22T13:09:12.580Z,24.50
2017-05-22T13:11:40.804Z,24.70
2017-05-22T13:14:09.016Z,24.40
2017-05-22T13:16:37.543Z,24.50
2017-05-22T13:19:05.764Z,24.80
2017-05-22T13:21:33.979Z,24.40
2017-05-22T13:24:02.210Z,24.60
2017-05-22T13:26:30.449Z,24.60
2017-05-22T13:28:58.659Z,24.50
2017-05-22T13:31:26.883Z,24.50
2017-05-22T13:33:55.092Z,24.50
2017-05-22T13:36:23.326Z,24.80
2017-05-22T13:38:51.531Z,24.70
2017-05-22T13:41:19.759Z,25.10
2017-05-22T13:43:47.979Z,25.90
2017-05-22T13:46:16.192Z,26.50
2017-05-22T13:48:44.420Z,26.30
2017-05-22T13:51:12.640Z,26.00
2017-05-22T13:53:40.851Z,26.60
2017-05-22T13:56:09.067Z,26.70
2017-05-22T13:58:37.284Z,26.20
2017-05-22T14:01:05.516Z,26.00
2017-05-22T14:03:33.741Z,25.00
2017-05-22T14:06:01.983Z,24.40
2017-05-22T14:08:30.193Z,24.00
2017-05-22T14:10:58.697Z,24.00
2017-05-22T14:13:26.924Z,23.70
2017-05-22T14:15:55.147Z,24.10
2017-05-22T14:18:23.384Z,25.00
2017-05-22T14:20:51.602Z,25.70
2017-05-22T14:23:19.824Z,26.40
2017-05-22T14:25:48.040Z,25.90
2017-05-22T14:28:16.272Z,25.20
2017-05-22T14:30:44.495Z,25.60
2017-05-22T14:33:12.723Z,26.30
2017-05-22T14:35:40.931Z,26.70
2017-05-22T14:38:09.160Z,26.80
2017-05-22T14:40:37.382Z,26.40
2017-05-22T14:43:05.595Z,25.90
2017-05-22T14:45:33.811Z,25.80
2017-05-22T14:48:02.043Z,25.50
2017-05-22T14:50:30.263Z,25.00
2017-05-22T14:52:58.633Z,24.30
2017-05-22T14:55:26.846Z,24.00
2017-05-22T14:57:59.004Z,23.80
2017-05-22T15:00:27.216Z,24.00
2017-05-22T15:02:55.443Z,24.30
2017-05-22T15:05:23.656Z,24.60
2017-05-22T15:07:51.885Z,24.50
2017-05-22T15:10:20.092Z,24.00
2017-05-22T15:12:48.315Z,23.60
2017-05-22T15:15:16.532Z,23.80
2017-05-22T15:17:44.753Z,24.30
2017-05-22T15:20:12.975Z,24.50
2017-05-22T15:22:41.194Z,24.30
2017-05-22T15:25:09.420Z,24.00
2017-05-22T15:27:37.627Z,24.10
2017-05-22T15:30:05.861Z,24.60
2017-05-22T15:32:34.092Z,24.90
2017-05-22T15:35:02.318Z,24.80
2017-05-22T15:37:30.530Z,24.50
2017-05-22T15:39:58.751Z,24.80
2017-05-22T15:42:26.969Z,24.90
2017-05-22T15:44:55.196Z,25.10
2017-05-22T15:47:23.409Z,25.20
2017-05-22T15:49:51.632Z,25.20
2017-05-22T15:52:19.855Z,25.40
2017-05-22T15:54:48.084Z,25.60
2017-05-22T15:57:16.312Z,26.00
2017-05-22T16:02:39.359Z,25.80
2017-05-22T16:05:16.827Z,26.40
2017-05-22T16:07:45.055Z,26.30
2017-05-22T16:10:13.279Z,26.50
2017-05-22T16:12:41.497Z,26.20
2017-05-22T16:15:09.723Z,26.30
2017-05-22T16:17:37.927Z,27.10
2017-05-22T16:20:06.147Z,27.70
2017-05-22T16:22:34.367Z,27.40
2017-05-22T16:25:02.603Z,28.00
2017-05-22T16:27:31.510Z,27.90
2017-05-22T16:29:59.740Z,28.10
2017-05-22T16:32:27.943Z,28.30
2017-05-22T16:34:56.213Z,28.40
2017-05-22T16:37:24.372Z,28.50
2017-05-22T16:39:52.587Z,28.10
2017-05-22T16:42:20.819Z,27.60
2017-05-22T16:44:49.039Z,26.80
2017-05-22T16:47:17.270Z,26.00
2017-05-22T16:49:45.476Z,25.30
2017-05-22T16:52:13.708Z,24.70
2017-05-22T16:54:43.282Z,24.60
2017-05-22T17:28:57.781Z,21.70
2017-05-22T17:31:26.021Z,21.90
2017-05-22T17:33:54.235Z,22.00
2017-05-22T17:36:22.455Z,22.20
2017-05-22T17:38:49.917Z,22.20
2017-05-22T17:41:18.126Z,22.30
2017-05-22T17:43:46.347Z,22.40
2017-05-22T17:46:15.406Z,22.30
2017-05-22T17:48:43.587Z,22.30
2017-05-22T17:51:11.812Z,22.10
2017-05-22T17:53:40.029Z,22.10
2017-05-22T17:56:08.240Z,21.90
2017-05-22T17:58:36.459Z,21.70
2017-05-22T18:01:04.671Z,21.50
2017-05-22T18:03:32.894Z,20.90
2017-05-22T18:06:01.107Z,20.50
2017-05-22T18:08:29.326Z,20.00
2017-05-22T18:10:57.547Z,19.70
2017-05-22T18:13:25.771Z,19.40
2017-05-22T18:15:53.987Z,19.50
2017-05-22T18:18:22.212Z,19.60
2017-05-22T18:20:50.415Z,19.60
2017-05-22T18:23:18.645Z,19.60
2017-05-22T18:25:46.863Z,19.60
2017-05-22T18:28:15.873Z,19.50
2017-05-22T18:30:44.091Z,19.50
2017-05-22T18:33:12.923Z,19.40
2017-05-22T18:35:41.133Z,19.40
2017-05-22T18:38:09.349Z,19.30
2017-05-22T18:40:37.560Z,19.00
2017-05-22T18:43:05.779Z,18.70
2017-05-22T18:45:33.994Z,18.50
2017-05-22T18:48:02.220Z,18.50
2017-05-22T18:50:30.565Z,18.30
2017-05-22T18:52:58.831Z,18.20
2017-05-22T18:55:27.087Z,18.20
2017-05-22T18:57:55.297Z,18.00
2017-05-22T19:00:23.658Z,17.70
